Time;durP1;ratioP1;P1;durP2;ratioP2;P2;SDS_P1;SDS_P2;PMS_P1;PMS_P2;Temp;Humidity;BMP_temperature;BMP_pressure;BME280_temperature;BME280_humidity;BME280_pressure;Samples;Min_cycle;Max_cycle;Signal;HPM_P1;HPM_P2
2023/05/25 00:00:18;;;;;;;;;;;;;;;11.79;100.00;96257.78;5044929;28;19932;-83
2023/05/25 00:02:45;;;;;;;;;;;;;;;11.82;100.00;96253.81;5028623;28;20067;-83
2023/05/25 00:05:14;;;;;;;;;;;;;;;11.85;100.00;96256.00;5040003;28;19925;-83
2023/05/25 00:07:40;;;;;;;;;;;;;;;11.90;100.00;96259.66;5028896;28;19925;-83
2023/05/25 00:10:08;;;;;;;;;;;;;;;11.95;100.00;96251.63;5048846;28;19925;-83
2023/05/25 00:12:35;;;;;;;;;;;;;;;11.97;100.00;96259.50;5046380;28;19933;-83
2023/05/25 00:15:03;;;;;;;;;;;;;;;11.98;100.00;96251.16;5052640;28;19925;-83
2023/05/25 00:17:30;;;;;;;;;;;;;;;12.03;100.00;96256.66;5032103;28;19925;-83
2023/05/25 00:20:01;;;;;;;;;;;;;;;11.99;100.00;96252.75;5050487;28;19932;-83
2023/05/25 00:22:29;;;;;;;;;;;;;;;12.02;100.00;96248.75;5038861;28;19947;-83
2023/05/25 00:24:56;;;;;;;;;;;;;;;11.98;100.00;96251.16;5041028;28;19928;-84
2023/05/25 00:27:24;;;;;;;;;;;;;;;12.03;100.00;96243.13;5056672;28;19938;-85
2023/05/25 00:29:51;;;;;;;;;;;;;;;12.07;100.00;96251.59;5035084;28;19958;-84
2023/05/25 00:32:18;;;;;;;;;;;;;;;12.02;100.00;96249.59;5048635;28;19925;-83
2023/05/25 00:34:47;;;;;;;;;;;;;;;12.00;100.00;96250.88;5035369;28;19976;-83
2023/05/25 00:37:13;;;;;;;;;;;;;;;11.95;100.00;96251.63;5038921;28;19947;-83
2023/05/25 00:39:42;;;;;;;;;;;;;;;11.95;100.00;96246.22;5041836;28;19925;-83
2023/05/25 00:42:08;;;;;;;;;;;;;;;11.98;100.00;96245.75;5052367;28;19925;-84
2023/05/25 00:44:35;;;;;;;;;;;;;;;11.99;100.00;96241.94;5030063;28;20011;-83
2023/05/25 00:47:03;;;;;;;;;;;;;;;11.94;100.00;96247.28;5041933;28;19939;-84
2023/05/25 00:49:31;;;;;;;;;;;;;;;11.93;100.00;96242.91;5044207;28;19925;-83
2023/05/25 00:51:58;;;;;;;;;;;;;;;11.99;100.00;96247.34;5034593;28;19932;-84
2023/05/25 00:54:26;;;;;;;;;;;;;;;12.04;100.00;96241.22;5051176;28;19984;-83
2023/05/25 00:56:56;;;;;;;;;;;;;;;12.07;100.00;96238.06;5035491;28;20182;-84
2023/05/25 00:59:26;;;;;;;;;;;;;;;12.04;100.00;96244.75;5035805;28;20073;-83
2023/05/25 01:01:54;;;;;;;;;;;;;;;12.05;100.00;96246.41;5053681;22;19946;-82
2023/05/25 01:04:21;;;;;;;;;;;;;;;11.99;100.00;96241.16;5065314;22;19928;-86
2023/05/25 01:06:49;;;;;;;;;;;;;;;11.92;100.00;96241.28;5062994;28;19982;-86
2023/05/25 01:09:16;;;;;;;;;;;;;;;11.88;100.00;96248.25;5049991;28;19996;-86
2023/05/25 01:11:44;;;;;;;;;;;;;;;11.86;100.00;96244.13;5068064;28;20027;-86
2023/05/25 01:14:13;;;;;;;;;;;;;;;11.83;100.00;96236.47;5051089;28;19924;-86
2023/05/25 01:16:41;;;;;;;;;;;;;;;11.79;100.00;96248.84;5054032;28;20003;-86
2023/05/25 01:19:09;;;;;;;;;;;;;;;11.78;100.00;96239.91;5062016;28;20019;-86
2023/05/25 01:21:42;;;;;;;;;;;;;;;11.73;100.00;96237.91;5046214;28;20183;-86
2023/05/25 01:24:12;;;;;;;;;;;;;;;11.71;100.00;96234.63;5051897;28;19929;-86
2023/05/25 01:26:42;;;;;;;;;;;;;;;11.74;100.00;96234.16;5048857;28;19928;-86
2023/05/25 01:29:10;;;;;;;;;;;;;;;11.82;100.00;96230.28;5064086;28;20019;-86
2023/05/25 01:31:39;;;;;;;;;;;;;;;11.88;100.00;96234.72;5067061;28;19956;-86
2023/05/25 01:34:06;;;;;;;;;;;;;;;11.91;100.00;96234.22;5049850;28;20191;-86
2023/05/25 01:36:33;;;;;;;;;;;;;;;11.91;100.00;96238.84;5054416;28;19925;-86
2023/05/25 01:39:06;;;;;;;;;;;;;;;11.84;100.00;96238.94;5050053;28;19925;-86
2023/05/25 01:41:35;;;;;;;;;;;;;;;11.87;100.00;96235.78;5051657;28;20712;-86
2023/05/25 01:44:03;;;;;;;;;;;;;;;11.91;100.00;96238.84;5052117;28;19970;-86
2023/05/25 01:46:34;;;;;;;;;;;;;;;11.97;100.00;96238.69;5069876;28;19947;-86
2023/05/25 01:49:07;;;;;;;;;;;;;;;11.99;100.00;96241.94;5040696;28;19928;-86
2023/05/25 01:51:38;;;;;;;;;;;;;;;12.02;100.00;96237.94;5050170;28;19928;-86
2023/05/25 01:54:08;;;;;;;;;;;;;;;12.02;100.00;96235.25;5048094;28;19973;-87
2023/05/25 01:56:36;;;;;;;;;;;;;;;11.94;100.00;96239.16;5039013;28;19932;-86
2023/05/25 01:59:04;;;;;;;;;;;;;;;11.94;100.00;96233.75;5044934;28;19954;-86
2023/05/25 02:01:33;;;;;;;;;;;;;;;11.93;100.00;96236.69;5036905;28;19967;-86
2023/05/25 02:04:01;;;;;;;;;;;;;;;11.90;100.00;96235.31;5057296;28;19998;-86
2023/05/25 02:06:27;;;;;;;;;;;;;;;11.84;100.00;96233.53;5027279;28;19932;-86
2023/05/25 02:08:54;;;;;;;;;;;;;;;11.87;100.00;96238.47;5027807;28;19931;-86
2023/05/25 02:11:22;;;;;;;;;;;;;;;11.86;100.00;96231.41;5031072;28;19932;-86
2023/05/25 02:13:49;;;;;;;;;;;;;;;11.80;100.00;96231.56;5050301;28;19925;-86
2023/05/25 02:16:16;;;;;;;;;;;;;;;11.78;100.00;96222.88;5045205;28;19970;-86
2023/05/25 02:18:45;;;;;;;;;;;;;;;11.81;100.00;96227.81;5033854;28;19974;-86
2023/05/25 02:21:12;;;;;;;;;;;;;;;11.84;100.00;96219.19;5028671;28;19981;-86
2023/05/25 02:23:39;;;;;;;;;;;;;;;11.84;100.00;96214.59;5032754;28;20004;-86
2023/05/25 02:26:06;;;;;;;;;;;;;;;11.86;100.00;96215.19;5027500;28;19933;-87
2023/05/25 02:28:35;;;;;;;;;;;;;;;11.89;100.00;96220.13;5034311;28;19925;-86
2023/05/25 02:31:02;;;;;;;;;;;;;;;11.88;100.00;96213.06;5035264;28;19925;-86
2023/05/25 02:33:29;;;;;;;;;;;;;;;11.88;100.00;96213.06;5047118;28;19933;-87
2023/05/25 02:35:57;;;;;;;;;;;;;;;11.88;100.00;96214.94;5030336;28;20017;-86
2023/05/25 02:38:24;;;;;;;;;;;;;;;11.89;100.00;96214.72;5032761;28;19967;-86
2023/05/25 02:40:50;;;;;;;;;;;;;;;11.89;100.00;96220.13;5048384;28;20034;-86
2023/05/25 02:43:20;;;;;;;;;;;;;;;11.84;100.00;96220.00;5050406;28;19951;-86
2023/05/25 02:45:49;;;;;;;;;;;;;;;11.80;100.00;96213.47;5039083;28;19932;-86
2023/05/25 02:48:16;;;;;;;;;;;;;;;11.82;100.00;96218.63;5036315;28;19932;-86
2023/05/25 02:50:43;;;;;;;;;;;;;;;11.81;100.00;96219.69;5041789;28;19964;-86
2023/05/25 02:53:14;;;;;;;;;;;;;;;11.78;100.00;96222.88;5044234;28;19925;-86
2023/05/25 02:55:42;;;;;;;;;;;;;;;11.77;100.00;96213.09;5025903;28;19929;-86
2023/05/25 02:58:12;;;;;;;;;;;;;;;11.74;100.00;96217.06;5033892;28;19983;-86
2023/05/25 03:00:59;;;;;;;;;;;;;;;11.70;100.00;96216.75;5047072;28;19932;-86
2023/05/25 03:03:26;;;;;;;;;;;;;;;11.70;100.00;96207.81;5030994;28;19932;-87
2023/05/25 03:05:53;;;;;;;;;;;;;;;11.71;100.00;96218.41;5047750;28;19925;-86
2023/05/25 03:08:19;;;;;;;;;;;;;;;11.75;100.00;96216.03;5032931;28;19925;-86
2023/05/25 03:10:47;;;;;;;;;;;;;;;11.77;100.00;96216.63;5047348;28;19932;-86
2023/05/25 03:13:14;;;;;;;;;;;;;;;11.75;100.00;96218.75;5031036;28;19925;-86
2023/05/25 03:15:41;;;;;;;;;;;;;;;11.74;100.00;96219.78;5039305;28;19971;-86
2023/05/25 03:18:10;;;;;;;;;;;;;;;11.72;100.00;96221.94;5023281;28;19925;-86
2023/05/25 03:20:40;;;;;;;;;;;;;;;11.75;100.00;96216.03;5035447;28;19925;-86
2023/05/25 03:23:08;;;;;;;;;;;;;;;11.76;100.00;96217.69;5029824;28;19925;-86
2023/05/25 03:25:34;;;;;;;;;;;;;;;11.76;100.00;96217.69;5050509;28;19982;-86
2023/05/25 03:28:02;;;;;;;;;;;;;;;11.76;100.00;96215.00;5035673;28;19924;-86
2023/05/25 03:30:30;;;;;;;;;;;;;;;11.76;100.00;96225.81;5027566;28;19928;-86
2023/05/25 03:32:57;;;;;;;;;;;;;;;11.74;100.00;96220.63;5031503;28;19925;-86
2023/05/25 03:35:28;;;;;;;;;;;;;;;11.74;100.00;96217.06;5031677;28;20000;-86
2023/05/25 03:37:55;;;;;;;;;;;;;;;11.74;100.00;96222.47;5030756;28;19925;-86
2023/05/25 03:40:22;;;;;;;;;;;;;;;11.75;100.00;96208.75;5036580;28;19929;-86
2023/05/25 03:42:49;;;;;;;;;;;;;;;11.69;100.00;96216.97;5030409;28;19929;-86
2023/05/25 03:45:16;;;;;;;;;;;;;;;11.64;100.00;96227.72;5035213;28;19925;-86
2023/05/25 03:47:44;;;;;;;;;;;;;;;11.58;100.00;96215.94;5027684;28;19931;-86
2023/05/25 03:50:11;;;;;;;;;;;;;;;11.52;100.00;96230.44;5034629;28;19929;-85
2023/05/25 03:52:39;;;;;;;;;;;;;;;11.49;100.00;96230.09;5058002;28;19936;-85
2023/05/25 03:55:06;;;;;;;;;;;;;;;11.53;100.00;96233.97;5044919;28;19931;-85
2023/05/25 03:57:33;;;;;;;;;;;;;;;11.59;100.00;96225.72;5033693;28;19925;-85
2023/05/25 04:00:00;;;;;;;;;;;;;;;11.62;100.00;96230.66;5033083;28;19929;-86
2023/05/25 04:02:27;;;;;;;;;;;;;;;11.63;100.00;96231.47;5029500;28;19925;-85
2023/05/25 04:04:55;;;;;;;;;;;;;;;11.57;100.00;96229.75;5048885;28;19925;-85
2023/05/25 04:07:22;;;;;;;;;;;;;;;11.52;100.00;96245.84;5038586;28;19925;-85
2023/05/25 04:09:50;;;;;;;;;;;;;;;11.53;100.00;96251.00;5034442;28;19925;-85
2023/05/25 04:12:17;;;;;;;;;;;;;;;11.56;100.00;96250.53;5034793;28;19932;-86
2023/05/25 04:14:45;;;;;;;;;;;;;;;11.56;100.00;96255.97;5031259;28;19992;-86
2023/05/25 04:17:11;;;;;;;;;;;;;;;11.57;100.00;96262.19;5031571;28;19987;-85
2023/05/25 04:19:38;;;;;;;;;;;;;;;11.56;100.00;96260.53;5044056;28;19925;-86
2023/05/25 04:22:05;;;;;;;;;;;;;;;11.56;100.00;96260.53;5022685;28;19925;-85
2023/05/25 04:24:33;;;;;;;;;;;;;;;11.54;100.00;96254.53;5032843;28;19933;-84
2023/05/25 04:27:02;;;;;;;;;;;;;;;11.53;100.00;96271.81;5045260;28;19931;-84
2023/05/25 04:29:30;;;;;;;;;;;;;;;11.54;100.00;96262.66;5042234;28;20041;-84
2023/05/25 04:32:01;;;;;;;;;;;;;;;11.56;100.00;96264.06;5055529;28;19961;-84
2023/05/25 04:34:28;;;;;;;;;;;;;;;11.55;100.00;96269.72;5055736;28;19936;-84
2023/05/25 04:37:04;;;;;;;;;;;;;;;11.57;100.00;96271.09;5036921;28;19925;-85
2023/05/25 04:39:32;;;;;;;;;;;;;;;11.60;100.00;96264.41;5036542;28;19932;-84
2023/05/25 04:42:00;;;;;;;;;;;;;;;11.62;100.00;96267.69;5038951;28;19929;-84
2023/05/25 04:44:28;;;;;;;;;;;;;;;11.66;100.00;96276.94;5036260;28;19925;-85
2023/05/25 04:46:55;;;;;;;;;;;;;;;11.67;100.00;96270.47;5039154;28;19925;-85
2023/05/25 04:49:31;;;;;;;;;;;;;;;11.70;100.00;96273.56;5041231;28;19925;-84
2023/05/25 04:51:58;;;;;;;;;;;;;;;11.70;100.00;96278.13;5048547;28;19935;-85
2023/05/25 04:54:27;;;;;;;;;;;;;;;11.67;100.00;96284.00;5038738;28;19925;-84
2023/05/25 04:56:57;;;;;;;;;;;;;;;11.65;100.00;96286.94;5029497;28;20014;-84
2023/05/25 04:59:24;;;;;;;;;;;;;;;11.63;100.00;96291.78;5038036;28;19947;-85
2023/05/25 05:01:52;;;;;;;;;;;;;;;11.66;100.00;96299.41;5039000;28;20063;-84
2023/05/25 05:04:19;;;;;;;;;;;;;;;11.68;100.00;96299.19;5042874;28;19960;-84
2023/05/25 05:06:47;;;;;;;;;;;;;;;11.70;100.00;96305.19;5042366;28;19951;-84
2023/05/25 05:09:18;;;;;;;;;;;;;;;11.71;100.00;96304.94;5040230;28;19974;-84
2023/05/25 05:11:47;;;;;;;;;;;;;;;11.72;100.00;96311.19;5041596;28;19925;-84
2023/05/25 05:14:14;;;;;;;;;;;;;;;11.71;100.00;96309.53;5050423;28;19933;-85
2023/05/25 05:16:43;;;;;;;;;;;;;;;11.73;100.00;96308.25;5038836;28;19924;-85
2023/05/25 05:19:11;;;;;;;;;;;;;;;11.72;100.00;96309.31;5042100;28;19968;-84
2023/05/25 05:21:38;;;;;;;;;;;;;;;11.71;100.00;96309.53;5040937;28;19935;-84
2023/05/25 05:24:06;;;;;;;;;;;;;;;11.73;100.00;96315.53;5039954;28;19924;-84
2023/05/25 05:26:33;;;;;;;;;;;;;;;11.74;100.00;96319.84;5039713;28;19925;-84
2023/05/25 05:29:00;;;;;;;;;;;;;;;11.70;100.00;96333.06;5029467;28;20001;-86
2023/05/25 05:31:30;;;;;;;;;;;;;;;11.71;100.00;96333.88;5029394;28;19932;-85
2023/05/25 05:33:57;;;;;;;;;;;;;;;11.73;100.00;96345.28;5051173;28;19956;-85
2023/05/25 05:36:28;;;;;;;;;;;;;;;11.72;100.00;96344.47;5034727;28;19924;-85
2023/05/25 05:38:56;;;;;;;;;;;;;;;11.77;100.00;96340.25;5023552;28;19936;-85
2023/05/25 05:41:23;;;;;;;;;;;;;;;11.79;100.00;96348.94;5026588;28;19935;-85
2023/05/25 05:43:50;;;;;;;;;;;;;;;11.83;100.00;96345.50;5048287;28;19959;-85
2023/05/25 05:46:17;;;;;;;;;;;;;;;11.90;100.00;96361.66;5045103;28;19925;-85
2023/05/25 05:48:44;;;;;;;;;;;;;;;11.93;100.00;96361.97;5031782;28;20016;-85
2023/05/25 05:51:11;;;;;;;;;;;;;;;11.96;100.00;96356.09;5031668;28;19932;-85
2023/05/25 05:53:39;;;;;;;;;;;;;;;11.96;100.00;96356.09;5036193;28;19961;-85
2023/05/25 05:56:06;;;;;;;;;;;;;;;11.96;100.00;96366.91;5027891;28;19928;-85
2023/05/25 05:58:33;;;;;;;;;;;;;;;11.96;100.00;96366.09;5038159;28;19935;-85
2023/05/25 06:01:01;;;;;;;;;;;;;;;11.96;100.00;96364.22;5047507;28;19924;-85
2023/05/25 06:03:27;;;;;;;;;;;;;;;11.99;100.00;96371.84;5050578;28;19925;-85
2023/05/25 06:05:55;;;;;;;;;;;;;;;12.04;100.00;96371.13;5037557;28;19933;-85
2023/05/25 06:08:21;;;;;;;;;;;;;;;11.98;100.00;96378.34;5032440;28;19932;-85
2023/05/25 06:10:50;;;;;;;;;;;;;;;12.03;100.00;96372.19;5038428;28;19925;-85
2023/05/25 06:13:17;;;;;;;;;;;;;;;12.04;100.00;96379.25;5036466;28;19925;-85
2023/05/25 06:15:43;;;;;;;;;;;;;;;12.11;100.00;96375.34;5034578;28;19968;-85
2023/05/25 06:18:16;;;;;;;;;;;;;;;12.18;100.00;96371.69;5042491;28;19933;-85
2023/05/25 06:20:42;;;;;;;;;;;;;;;12.19;100.00;96379.56;5031340;28;19960;-85
2023/05/25 06:23:12;;;;;;;;;;;;;;;12.21;100.00;96385.56;5028988;28;19925;-85
2023/05/25 06:25:39;;;;;;;;;;;;;;;12.20;100.00;96385.81;5038175;28;19936;-85
2023/05/25 06:28:07;;;;;;;;;;;;;;;12.26;100.00;96393.78;5038141;28;19924;-85
2023/05/25 06:30:34;;;;;;;;;;;;;;;12.29;100.00;96390.59;5034284;28;20003;-85
2023/05/25 06:33:02;;;;;;;;;;;;;;;12.34;100.00;96385.28;5032648;28;19943;-85
2023/05/25 06:35:29;;;;;;;;;;;;;;;12.28;100.00;96390.84;5037320;28;19940;-85
2023/05/25 06:37:57;;;;;;;;;;;;;;;12.29;100.00;96387.91;5036389;28;19924;-85
2023/05/25 06:40:24;;;;;;;;;;;;;;;12.35;100.00;96386.94;5038757;28;19931;-85
2023/05/25 06:42:50;;;;;;;;;;;;;;;12.20;100.00;96383.09;5033787;28;19924;-85
2023/05/25 06:45:37;;;;;;;;;;;;;;;12.16;100.00;96381.94;5048922;28;19932;-85
2023/05/25 06:48:05;;;;;;;;;;;;;;;12.26;100.00;96387.53;5030653;28;19933;-85
2023/05/25 06:50:33;;;;;;;;;;;;;;;12.34;100.00;96389.88;5030792;28;19925;-85
2023/05/25 06:53:00;;;;;;;;;;;;;;;12.31;100.00;96384.97;5030842;28;19925;-85
2023/05/25 06:55:26;;;;;;;;;;;;;;;12.32;100.00;96386.59;5042401;28;19925;-85
2023/05/25 06:57:53;;;;;;;;;;;;;;;12.38;100.00;96374.81;5036742;28;19939;-85
2023/05/25 07:00:20;;;;;;;;;;;;;;;12.38;100.00;96380.22;5034700;28;19932;-85
2023/05/25 07:02:49;;;;;;;;;;;;;;;12.33;100.00;96372.00;5027525;28;19925;-85
2023/05/25 07:05:16;;;;;;;;;;;;;;;12.40;100.00;96367.28;5042251;28;19935;-85
2023/05/25 07:07:43;;;;;;;;;;;;;;;12.51;100.00;96356.38;5039611;28;20151;-85
2023/05/25 07:10:10;;;;;;;;;;;;;;;12.57;100.00;96354.59;5055210;28;19933;-85
2023/05/25 07:12:37;;;;;;;;;;;;;;;12.63;100.00;96350.09;5026795;28;19940;-85
2023/05/25 07:15:05;;;;;;;;;;;;;;;12.72;100.00;96352.16;5029717;28;19929;-85
2023/05/25 07:17:31;;;;;;;;;;;;;;;12.78;100.00;96353.91;5047676;28;20040;-85
2023/05/25 07:19:59;;;;;;;;;;;;;;;12.89;100.00;96339.47;5033184;28;20000;-85
2023/05/25 07:22:26;;;;;;;;;;;;;;;12.94;100.00;96340.59;5053964;28;20008;-85
2023/05/25 07:24:53;;;;;;;;;;;;;;;13.00;100.00;96323.38;5047596;28;19925;-85
2023/05/25 07:27:20;;;;;;;;;;;;;;;13.10;100.00;96328.97;5048647;28;19929;-85
2023/05/25 07:29:47;;;;;;;;;;;;;;;13.19;100.00;96331.03;5033614;28;19932;-85
2023/05/25 07:32:13;;;;;;;;;;;;;;;13.39;100.00;96332.44;5036777;28;19993;-85
2023/05/25 07:34:41;;;;;;;;;;;;;;;13.39;100.00;96337.84;5034078;28;19924;-85
2023/05/25 07:37:09;;;;;;;;;;;;;;;13.42;100.00;96330.06;5042689;28;19987;-85
2023/05/25 07:39:36;;;;;;;;;;;;;;;13.43;100.00;96337.13;5042560;28;19925;-85
2023/05/25 07:42:04;;;;;;;;;;;;;;;13.64;100.00;96341.75;5029926;28;19944;-85
2023/05/25 07:44:31;;;;;;;;;;;;;;;13.83;100.00;96345.00;5049497;28;19964;-85
2023/05/25 07:46:58;;;;;;;;;;;;;;;14.06;100.00;96354.00;5046017;28;19932;-85
2023/05/25 07:49:24;;;;;;;;;;;;;;;14.11;100.00;96367.66;5027570;28;19925;-85
2023/05/25 07:51:51;;;;;;;;;;;;;;;14.04;100.00;96370.53;5036051;28;19960;-84
2023/05/25 07:54:19;;;;;;;;;;;;;;;14.06;100.00;96367.56;5033685;28;19928;-85
2023/05/25 07:56:46;;;;;;;;;;;;;;;14.08;100.00;96368.97;5059310;28;20028;-85
2023/05/25 07:59:13;;;;;;;;;;;;;;;14.03;100.00;96382.47;5037961;28;19925;-85
2023/05/25 08:01:40;;;;;;;;;;;;;;;13.95;100.00;96372.06;5033179;28;19952;-85
2023/05/25 08:04:07;;;;;;;;;;;;;;;13.99;100.00;96381.31;5035646;28;19925;-84
2023/05/25 08:06:34;;;;;;;;;;;;;;;13.95;100.00;96375.56;5034564;28;19940;-85
2023/05/25 08:09:01;;;;;;;;;;;;;;;13.83;100.00;96382.19;5031234;28;19925;-85
2023/05/25 08:11:30;;;;;;;;;;;;;;;13.71;100.00;96384.16;5036066;28;19979;-85
2023/05/25 08:13:56;;;;;;;;;;;;;;;13.67;100.00;96385.75;5038914;28;19925;-84
2023/05/25 08:16:23;;;;;;;;;;;;;;;13.70;100.00;96386.06;5035692;28;19970;-84
2023/05/25 08:18:50;;;;;;;;;;;;;;;13.72;100.00;96397.50;5047432;28;19932;-85
2023/05/25 08:21:17;;;;;;;;;;;;;;;13.73;100.00;96388.28;5042965;28;19933;-85
2023/05/25 08:23:44;;;;;;;;;;;;;;;13.76;100.00;96392.41;5042524;28;19935;-85
2023/05/25 08:26:11;;;;;;;;;;;;;;;13.71;100.00;96397.75;5040117;28;20284;-84
2023/05/25 08:28:40;;;;;;;;;;;;;;;13.73;100.00;96403.75;5044309;28;19925;-84
2023/05/25 08:31:06;;;;;;;;;;;;;;;13.93;100.00;96414.91;5025726;28;19986;-85
2023/05/25 08:33:33;;;;;;;;;;;;;;;14.05;100.00;96423.75;5030547;28;19932;-85
2023/05/25 08:36:00;;;;;;;;;;;;;;;14.05;100.00;96423.75;5031862;28;19925;-84
2023/05/25 08:38:27;;;;;;;;;;;;;;;14.05;100.00;96426.47;5026923;28;19925;-86
2023/05/25 08:41:02;;;;;;;;;;;;;;;14.14;100.00;96441.25;5034012;28;19925;-84
2023/05/25 08:43:30;;;;;;;;;;;;;;;14.23;100.00;96428.06;5038076;28;19913;-84
2023/05/25 08:46:02;;;;;;;;;;;;;;;14.21;100.00;96431.03;5031685;28;19925;-84
2023/05/25 08:48:30;;;;;;;;;;;;;;;14.17;100.00;96442.66;5031122;28;19929;-84
2023/05/25 08:50:58;;;;;;;;;;;;;;;14.16;100.00;96444.56;5035936;28;19925;-84
2023/05/25 08:53:26;;;;;;;;;;;;;;;14.17;100.00;96440.78;5026771;28;19933;-84
2023/05/25 08:55:54;;;;;;;;;;;;;;;14.29;100.00;96437.97;5040620;28;19936;-84
2023/05/25 08:58:23;;;;;;;;;;;;;;;14.35;100.00;96450.53;5044716;28;19925;-84
2023/05/25 09:00:54;;;;;;;;;;;;;;;14.45;100.00;96458.84;5047613;28;19936;-84
2023/05/25 09:03:23;;;;;;;;;;;;;;;14.60;100.00;96456.31;5035187;28;19968;-84
2023/05/25 09:05:50;;;;;;;;;;;;;;;14.71;100.00;96460.81;5028237;28;19925;-86
2023/05/25 09:08:17;;;;;;;;;;;;;;;14.80;100.00;96457.66;5033578;28;19925;-84
2023/05/25 09:10:44;;;;;;;;;;;;;;;14.84;100.00;96458.75;5033590;28;19932;-84
2023/05/25 09:13:11;;;;;;;;;;;;;;;15.00;100.00;96463.28;5031780;28;19925;-84
2023/05/25 09:15:38;;;;;;;;;;;;;;;15.03;100.00;96476.38;5028675;28;19932;-84
2023/05/25 09:18:05;;;;;;;;;;;;;;;15.12;100.00;96478.41;5030179;28;19929;-84
2023/05/25 09:20:33;;;;;;;;;;;;;;;15.27;100.00;96482.34;5030438;28;19944;-84
2023/05/25 09:23:01;;;;;;;;;;;;;;;15.29;100.00;96478.31;5029840;28;19925;-84
2023/05/25 09:25:30;;;;;;;;;;;;;;;15.36;100.00;96481.63;5034435;28;19935;-84
2023/05/25 09:27:58;;;;;;;;;;;;;;;15.67;100.00;96481.94;5030458;28;19929;-84
2023/05/25 09:30:26;;;;;;;;;;;;;;;15.84;100.00;96488.91;5030566;28;19930;-84
2023/05/25 09:32:53;;;;;;;;;;;;;;;15.87;100.00;96496.56;5027498;28;19948;-84
2023/05/25 09:35:22;;;;;;;;;;;;;;;15.97;100.00;96490.38;5037761;28;19951;-84
2023/05/25 09:37:54;;;;;;;;;;;;;;;16.00;100.00;96500.72;5037800;28;19931;-84
2023/05/25 09:40:20;;;;;;;;;;;;;;;16.08;100.00;96502.97;5037201;28;19941;-84
2023/05/25 09:42:48;;;;;;;;;;;;;;;16.31;100.00;96504.50;5036636;28;19936;-84
2023/05/25 09:45:16;;;;;;;;;;;;;;;16.68;100.00;96503.63;5032837;28;19929;-84
2023/05/25 09:47:43;;;;;;;;;;;;;;;16.96;100.00;96503.22;5033947;28;19948;-84
2023/05/25 09:50:12;;;;;;;;;;;;;;;16.89;100.00;96506.22;5027059;28;19948;-84
2023/05/25 09:52:39;;;;;;;;;;;;;;;16.88;100.00;96511.94;5028055;28;19925;-84
2023/05/25 09:55:11;;;;;;;;;;;;;;;16.83;100.00;96501.84;5021570;28;19960;-84
2023/05/25 09:57:38;;;;;;;;;;;;;;;16.97;100.00;96499.41;5036048;28;19956;-84
2023/05/25 10:00:07;;;;;;;;;;;;;;;16.89;100.00;96505.38;5026496;28;19933;-84
2023/05/25 10:02:38;;;;;;;;;;;;;;;17.02;100.00;96492.06;5039173;28;19996;-84
2023/05/25 10:05:06;;;;;;;;;;;;;;;16.83;100.00;96481.91;5033240;28;19925;-84
2023/05/25 10:07:33;;;;;;;;;;;;;;;16.91;100.00;96489.59;5041494;28;19990;-84
2023/05/25 10:10:03;;;;;;;;;;;;;;;17.23;100.00;96487.50;5039072;28;20030;-84
2023/05/25 10:12:32;;;;;;;;;;;;;;;17.54;100.00;96495.75;5031461;28;19932;-84
2023/05/25 10:15:01;;;;;;;;;;;;;;;17.75;100.00;96503.75;5034140;28;19933;-84
2023/05/25 10:17:30;;;;;;;;;;;;;;;17.85;100.00;96504.84;5053779;28;19924;-84
2023/05/25 10:19:58;;;;;;;;;;;;;;;17.97;100.00;96505.38;5037589;28;19940;-84
2023/05/25 10:22:27;;;;;;;;;;;;;;;18.12;100.00;96508.09;5020871;28;19925;-86
2023/05/25 10:24:55;;;;;;;;;;;;;;;18.29;100.00;96508.63;5015873;28;20030;-87
2023/05/25 10:27:24;;;;;;;;;;;;;;;18.21;100.00;96513.84;5018935;28;20004;-87
2023/05/25 10:29:55;;;;;;;;;;;;;;;18.07;100.00;96505.38;5017682;28;19925;-88
2023/05/25 10:32:22;;;;;;;;;;;;;;;17.86;100.00;96520.16;5026911;28;19929;-85
2023/05/25 10:34:50;;;;;;;;;;;;;;;17.77;100.00;96517.13;5030125;28;19925;-84
2023/05/25 10:37:18;;;;;;;;;;;;;;;17.80;100.00;96523.94;5030383;28;19925;-84
2023/05/25 10:39:46;;;;;;;;;;;;;;;17.73;100.00;96524.22;5023809;28;19935;-85
2023/05/25 10:42:13;;;;;;;;;;;;;;;17.82;100.00;96536.25;5040821;28;19925;-85
2023/05/25 10:44:42;;;;;;;;;;;;;;;17.91;100.00;96534.63;5027583;28;20053;-85
2023/05/25 10:47:15;;;;;;;;;;;;;;;17.89;100.00;96555.91;5023572;28;19929;-84
2023/05/25 10:49:51;;;;;;;;;;;;;;;18.06;100.00;96552.91;5038437;28;19929;-85
2023/05/25 10:52:19;;;;;;;;;;;;;;;17.80;100.00;96560.28;5037155;28;20036;-85
2023/05/25 10:54:46;;;;;;;;;;;;;;;17.71;100.00;96557.25;5018606;28;19933;-86
2023/05/25 10:57:18;;;;;;;;;;;;;;;17.82;100.00;96551.81;5040600;28;20006;-84
2023/05/25 10:59:49;;;;;;;;;;;;;;;17.77;100.00;96564.38;5041143;28;19972;-84
2023/05/25 11:02:21;;;;;;;;;;;;;;;17.82;100.00;96557.28;5027075;28;19967;-84
2023/05/25 11:04:49;;;;;;;;;;;;;;;17.53;100.00;96565.09;5018428;28;19930;-84
2023/05/25 11:07:17;;;;;;;;;;;;;;;17.55;100.00;96566.47;5022234;28;19929;-84
2023/05/25 11:09:44;;;;;;;;;;;;;;;17.93;100.00;96572.59;5027359;28;20225;-84
2023/05/25 11:12:21;;;;;;;;;;;;;;;18.07;100.00;96576.44;5023215;28;19936;-84
2023/05/25 11:15:11;;;;;;;;;;;;;;;17.79;100.00;96575.00;5042882;28;19925;-84
2023/05/25 11:18:01;;;;;;;;;;;;;;;17.67;100.00;96574.47;5026838;28;19925;-84
2023/05/25 11:20:30;;;;;;;;;;;;;;;17.66;100.00;96568.19;5000652;28;19929;-84
2023/05/25 11:22:58;;;;;;;;;;;;;;;17.78;100.00;96570.63;5030554;28;19965;-84
2023/05/25 11:25:38;;;;;;;;;;;;;;;17.84;100.00;96582.41;5029852;28;19932;-83
2023/05/25 11:28:06;;;;;;;;;;;;;;;17.81;100.00;96570.09;5022253;28;19929;-84
2023/05/25 11:30:33;;;;;;;;;;;;;;;18.20;100.00;96572.34;5022673;28;19933;-83
2023/05/25 11:33:01;;;;;;;;;;;;;;;18.32;100.00;96576.44;5020584;28;19961;-83
2023/05/25 11:35:28;;;;;;;;;;;;;;;18.21;100.00;96579.44;5027441;28;19932;-83
2023/05/25 11:37:59;;;;;;;;;;;;;;;18.12;100.00;96579.97;5037594;28;19925;-83
2023/05/25 11:40:29;;;;;;;;;;;;;;;18.07;100.00;96579.16;5028648;28;19925;-84
2023/05/25 11:42:56;;;;;;;;;;;;;;;17.97;100.00;96585.44;5026797;28;19943;-84
2023/05/25 11:45:25;;;;;;;;;;;;;;;17.90;100.00;96584.88;5028479;28;19925;-84
2023/05/25 11:47:52;;;;;;;;;;;;;;;17.96;100.00;96586.50;5038289;28;19972;-84
2023/05/25 11:50:18;;;;;;;;;;;;;;;17.89;100.00;96583.22;5026341;28;19925;-84
2023/05/25 11:52:45;;;;;;;;;;;;;;;17.96;100.00;96583.78;5027543;28;19925;-84
2023/05/25 11:55:14;;;;;;;;;;;;;;;18.19;100.00;96581.63;5028831;28;19929;-84
2023/05/25 11:57:41;;;;;;;;;;;;;;;18.52;100.00;96581.09;5029364;28;19975;-84
2023/05/25 12:00:10;;;;;;;;;;;;;;;18.72;100.00;96580.25;5013658;28;19929;-84
2023/05/25 12:02:40;;;;;;;;;;;;;;;18.95;97.15;96585.16;5026567;28;19925;-84
2023/05/25 12:05:07;;;;;;;;;;;;;;;19.19;97.48;96577.13;5032602;28;19929;-83
2023/05/25 12:07:35;;;;;;;;;;;;;;;19.47;96.63;96575.66;5038539;28;19963;-84
2023/05/25 12:10:05;;;;;;;;;;;;;;;19.63;93.40;96567.09;5032544;28;19936;-84
2023/05/25 12:12:40;;;;;;;;;;;;;;;19.58;92.98;96569.84;5032199;28;19937;-84
2023/05/25 12:15:07;;;;;;;;;;;;;;;19.38;95.70;96566.38;5018293;28;19997;-84
2023/05/25 12:17:34;;;;;;;;;;;;;;;19.69;93.42;96554.19;5032951;28;19933;-84
2023/05/25 12:20:01;;;;;;;;;;;;;;;19.96;92.07;96561.97;5036997;28;19926;-84
2023/05/25 12:22:28;;;;;;;;;;;;;;;20.10;94.27;96557.47;5023672;28;19926;-84
2023/05/25 12:24:54;;;;;;;;;;;;;;;20.26;90.88;96567.22;5019766;28;19926;-84
2023/05/25 12:27:21;;;;;;;;;;;;;;;20.49;87.98;96559.41;5035142;28;19925;-84
2023/05/25 12:29:51;;;;;;;;;;;;;;;20.43;91.75;96557.78;5033346;28;19961;-84
2023/05/25 12:32:18;;;;;;;;;;;;;;;20.21;90.60;96550.81;5044511;28;19976;-84
2023/05/25 12:34:45;;;;;;;;;;;;;;;20.34;90.51;96563.06;5020062;28;19960;-84
2023/05/25 12:37:19;;;;;;;;;;;;;;;20.28;89.64;96567.75;5028785;28;19961;-84
2023/05/25 12:39:47;;;;;;;;;;;;;;;20.30;89.06;96553.75;5024839;28;19949;-84
2023/05/25 12:42:15;;;;;;;;;;;;;;;20.23;91.16;96569.72;5023578;28;19968;-84